sensor_id;sensor_type;location;lat;lon;timestamp;P1;durP1;ratioP1;P2;durP2;ratioP2
84974;SDS011;75284;50.310;19.284;2024-01-11T00:01:46;245.30;;;88.20;;
84974;SDS011;75284;50.310;19.284;2024-01-11T00:04:16;229.30;;;90.60;;
84974;SDS011;75284;50.310;19.284;2024-01-11T00:06:46;239.30;;;92.60;;
84974;SDS011;75284;50.310;19.284;2024-01-11T00:09:15;226.60;;;88.90;;
84974;SDS011;75284;50.310;19.284;2024-01-11T00:11:45;235.00;;;87.90;;
84974;SDS011;75284;50.310;19.284;2024-01-11T00:14:15;214.60;;;84.90;;
84974;SDS011;75284;50.310;19.284;2024-01-11T00:16:44;211.70;;;84.00;;
84974;SDS011;75284;50.310;19.284;2024-01-11T00:19:14;168.20;;;63.40;;
84974;SDS011;75284;50.310;19.284;2024-01-11T00:21:44;218.30;;;81.90;;
84974;SDS011;75284;50.310;19.284;2024-01-11T00:24:13;232.30;;;85.80;;
84974;SDS011;75284;50.310;19.284;2024-01-11T00:26:43;219.70;;;81.70;;
84974;SDS011;75284;50.310;19.284;2024-01-11T00:29:13;238.60;;;88.00;;
84974;SDS011;75284;50.310;19.284;2024-01-11T00:31:43;237.90;;;88.60;;
84974;SDS011;75284;50.310;19.284;2024-01-11T00:34:12;209.30;;;83.20;;
84974;SDS011;75284;50.310;19.284;2024-01-11T00:36:42;219.70;;;85.20;;
84974;SDS011;75284;50.310;19.284;2024-01-11T00:39:12;233.50;;;91.90;;
84974;SDS011;75284;50.310;19.284;2024-01-11T00:42:06;235.80;;;91.20;;
84974;SDS011;75284;50.310;19.284;2024-01-11T00:44:35;229.40;;;93.30;;
84974;SDS011;75284;50.310;19.284;2024-01-11T00:47:05;243.90;;;91.30;;
84974;SDS011;75284;50.310;19.284;2024-01-11T00:49:35;211.30;;;74.20;;
84974;SDS011;75284;50.310;19.284;2024-01-11T00:52:05;226.20;;;83.20;;
84974;SDS011;75284;50.310;19.284;2024-01-11T00:54:35;219.90;;;88.70;;
84974;SDS011;75284;50.310;19.284;2024-01-11T00:57:05;240.60;;;95.70;;
84974;SDS011;75284;50.310;19.284;2024-01-11T00:59:34;236.10;;;97.50;;
84974;SDS011;75284;50.310;19.284;2024-01-11T01:02:04;271.40;;;107.80;;
84974;SDS011;75284;50.310;19.284;2024-01-11T01:04:34;275.20;;;105.70;;
84974;SDS011;75284;50.310;19.284;2024-01-11T01:07:07;262.30;;;91.60;;
84974;SDS011;75284;50.310;19.284;2024-01-11T01:09:36;275.20;;;109.50;;
84974;SDS011;75284;50.310;19.284;2024-01-11T01:12:06;278.20;;;103.30;;
84974;SDS011;75284;50.310;19.284;2024-01-11T01:14:36;221.40;;;80.60;;
84974;SDS011;75284;50.310;19.284;2024-01-11T01:17:09;264.30;;;96.60;;
84974;SDS011;75284;50.310;19.284;2024-01-11T01:19:39;252.90;;;95.40;;
84974;SDS011;75284;50.310;19.284;2024-01-11T01:22:09;234.10;;;87.30;;
84974;SDS011;75284;50.310;19.284;2024-01-11T01:24:38;241.70;;;90.80;;
84974;SDS011;75284;50.310;19.284;2024-01-11T01:27:08;214.40;;;76.90;;
84974;SDS011;75284;50.310;19.284;2024-01-11T01:29:38;218.30;;;76.80;;
84974;SDS011;75284;50.310;19.284;2024-01-11T01:32:08;217.20;;;87.20;;
84974;SDS011;75284;50.310;19.284;2024-01-11T01:34:42;245.00;;;81.90;;
84974;SDS011;75284;50.310;19.284;2024-01-11T01:37:11;253.30;;;89.70;;
84974;SDS011;75284;50.310;19.284;2024-01-11T01:39:41;257.10;;;95.40;;
84974;SDS011;75284;50.310;19.284;2024-01-11T01:42:11;258.90;;;95.50;;
84974;SDS011;75284;50.310;19.284;2024-01-11T01:44:40;222.60;;;88.50;;
84974;SDS011;75284;50.310;19.284;2024-01-11T01:47:10;245.70;;;91.40;;
84974;SDS011;75284;50.310;19.284;2024-01-11T01:49:40;273.30;;;98.00;;
84974;SDS011;75284;50.310;19.284;2024-01-11T01:52:15;253.70;;;93.90;;
84974;SDS011;75284;50.310;19.284;2024-01-11T01:54:47;260.60;;;98.10;;
84974;SDS011;75284;50.310;19.284;2024-01-11T01:57:18;250.20;;;94.60;;
84974;SDS011;75284;50.310;19.284;2024-01-11T01:59:49;241.00;;;93.70;;
84974;SDS011;75284;50.310;19.284;2024-01-11T02:02:20;251.80;;;92.80;;
84974;SDS011;75284;50.310;19.284;2024-01-11T02:04:51;255.50;;;94.50;;
84974;SDS011;75284;50.310;19.284;2024-01-11T02:07:23;249.30;;;102.00;;
84974;SDS011;75284;50.310;19.284;2024-01-11T02:09:53;269.40;;;104.50;;
84974;SDS011;75284;50.310;19.284;2024-01-11T02:12:23;255.30;;;105.00;;
84974;SDS011;75284;50.310;19.284;2024-01-11T02:14:53;248.90;;;100.80;;
84974;SDS011;75284;50.310;19.284;2024-01-11T02:17:23;254.60;;;96.20;;
84974;SDS011;75284;50.310;19.284;2024-01-11T02:19:53;270.90;;;99.60;;
84974;SDS011;75284;50.310;19.284;2024-01-11T02:22:24;227.90;;;83.00;;
84974;SDS011;75284;50.310;19.284;2024-01-11T02:25:00;239.50;;;90.10;;
84974;SDS011;75284;50.310;19.284;2024-01-11T02:27:31;237.20;;;91.20;;
84974;SDS011;75284;50.310;19.284;2024-01-11T02:30:15;222.60;;;84.20;;
84974;SDS011;75284;50.310;19.284;2024-01-11T02:32:45;239.10;;;86.70;;
84974;SDS011;75284;50.310;19.284;2024-01-11T02:35:16;229.50;;;88.40;;
84974;SDS011;75284;50.310;19.284;2024-01-11T02:37:50;236.00;;;90.10;;
84974;SDS011;75284;50.310;19.284;2024-01-11T02:40:21;220.00;;;85.70;;
84974;SDS011;75284;50.310;19.284;2024-01-11T02:42:51;219.40;;;87.40;;
84974;SDS011;75284;50.310;19.284;2024-01-11T02:45:20;186.90;;;66.50;;
84974;SDS011;75284;50.310;19.284;2024-01-11T02:47:50;224.80;;;85.20;;
84974;SDS011;75284;50.310;19.284;2024-01-11T02:50:20;213.30;;;83.30;;
84974;SDS011;75284;50.310;19.284;2024-01-11T02:52:49;205.70;;;81.00;;
84974;SDS011;75284;50.310;19.284;2024-01-11T02:55:19;206.10;;;81.60;;
84974;SDS011;75284;50.310;19.284;2024-01-11T02:58:14;194.30;;;74.20;;
84974;SDS011;75284;50.310;19.284;2024-01-11T03:00:43;201.00;;;78.70;;
84974;SDS011;75284;50.310;19.284;2024-01-11T03:03:13;214.10;;;86.00;;
84974;SDS011;75284;50.310;19.284;2024-01-11T03:05:43;228.10;;;85.00;;
84974;SDS011;75284;50.310;19.284;2024-01-11T03:08:12;223.90;;;84.40;;
84974;SDS011;75284;50.310;19.284;2024-01-11T03:10:42;216.20;;;86.80;;
84974;SDS011;75284;50.310;19.284;2024-01-11T03:13:12;199.80;;;82.70;;
84974;SDS011;75284;50.310;19.284;2024-01-11T03:15:41;221.50;;;87.80;;
84974;SDS011;75284;50.310;19.284;2024-01-11T03:18:11;204.80;;;81.60;;
84974;SDS011;75284;50.310;19.284;2024-01-11T03:20:41;191.90;;;75.90;;
84974;SDS011;75284;50.310;19.284;2024-01-11T03:23:11;214.60;;;83.00;;
84974;SDS011;75284;50.310;19.284;2024-01-11T03:25:41;195.40;;;73.00;;
84974;SDS011;75284;50.310;19.284;2024-01-11T03:28:10;207.40;;;82.00;;
84974;SDS011;75284;50.310;19.284;2024-01-11T03:30:41;190.90;;;78.60;;
84974;SDS011;75284;50.310;19.284;2024-01-11T03:33:11;177.00;;;76.00;;
84974;SDS011;75284;50.310;19.284;2024-01-11T03:35:41;184.30;;;74.80;;
84974;SDS011;75284;50.310;19.284;2024-01-11T03:38:15;180.90;;;74.20;;
84974;SDS011;75284;50.310;19.284;2024-01-11T03:40:45;184.70;;;71.30;;
84974;SDS011;75284;50.310;19.284;2024-01-11T03:43:18;204.40;;;82.00;;
84974;SDS011;75284;50.310;19.284;2024-01-11T03:45:47;205.40;;;80.60;;
84974;SDS011;75284;50.310;19.284;2024-01-11T03:48:17;234.30;;;84.00;;
84974;SDS011;75284;50.310;19.284;2024-01-11T03:50:46;209.80;;;78.70;;
84974;SDS011;75284;50.310;19.284;2024-01-11T03:53:16;225.20;;;86.60;;
84974;SDS011;75284;50.310;19.284;2024-01-11T03:55:48;216.60;;;81.60;;
84974;SDS011;75284;50.310;19.284;2024-01-11T03:58:17;188.50;;;78.60;;
84974;SDS011;75284;50.310;19.284;2024-01-11T04:00:47;191.30;;;73.90;;
84974;SDS011;75284;50.310;19.284;2024-01-11T04:03:16;230.00;;;86.40;;
84974;SDS011;75284;50.310;19.284;2024-01-11T04:05:46;222.90;;;81.10;;
84974;SDS011;75284;50.310;19.284;2024-01-11T04:08:16;208.70;;;82.80;;
84974;SDS011;75284;50.310;19.284;2024-01-11T04:10:46;195.60;;;75.90;;
84974;SDS011;75284;50.310;19.284;2024-01-11T04:15:43;192.20;;;74.40;;
84974;SDS011;75284;50.310;19.284;2024-01-11T04:18:13;205.20;;;80.50;;
84974;SDS011;75284;50.310;19.284;2024-01-11T04:20:43;235.40;;;92.40;;
84974;SDS011;75284;50.310;19.284;2024-01-11T04:25:47;181.80;;;64.90;;
84974;SDS011;75284;50.310;19.284;2024-01-11T04:28:18;205.50;;;76.80;;
84974;SDS011;75284;50.310;19.284;2024-01-11T04:30:48;203.00;;;76.60;;
84974;SDS011;75284;50.310;19.284;2024-01-11T04:33:17;198.00;;;78.30;;
84974;SDS011;75284;50.310;19.284;2024-01-11T04:35:47;181.70;;;77.90;;
84974;SDS011;75284;50.310;19.284;2024-01-11T04:38:21;206.70;;;83.40;;
84974;SDS011;75284;50.310;19.284;2024-01-11T04:40:50;225.40;;;88.40;;
84974;SDS011;75284;50.310;19.284;2024-01-11T04:43:20;228.80;;;91.80;;
84974;SDS011;75284;50.310;19.284;2024-01-11T04:45:49;244.30;;;94.20;;
84974;SDS011;75284;50.310;19.284;2024-01-11T04:48:19;216.00;;;78.20;;
84974;SDS011;75284;50.310;19.284;2024-01-11T04:50:49;196.60;;;77.20;;
84974;SDS011;75284;50.310;19.284;2024-01-11T04:53:18;177.40;;;69.10;;
84974;SDS011;75284;50.310;19.284;2024-01-11T04:55:52;206.80;;;73.50;;
84974;SDS011;75284;50.310;19.284;2024-01-11T04:58:21;183.50;;;64.10;;
84974;SDS011;75284;50.310;19.284;2024-01-11T05:00:51;223.20;;;85.80;;
84974;SDS011;75284;50.310;19.284;2024-01-11T05:03:21;210.30;;;81.20;;
84974;SDS011;75284;50.310;19.284;2024-01-11T05:05:50;212.50;;;79.80;;
84974;SDS011;75284;50.310;19.284;2024-01-11T05:08:20;197.40;;;76.80;;
84974;SDS011;75284;50.310;19.284;2024-01-11T05:10:50;184.20;;;67.70;;
84974;SDS011;75284;50.310;19.284;2024-01-11T05:13:20;232.70;;;90.00;;
84974;SDS011;75284;50.310;19.284;2024-01-11T05:15:49;210.10;;;79.30;;
84974;SDS011;75284;50.310;19.284;2024-01-11T05:18:19;256.60;;;92.70;;
84974;SDS011;75284;50.310;19.284;2024-01-11T05:20:49;227.20;;;87.80;;
84974;SDS011;75284;50.310;19.284;2024-01-11T05:23:22;210.20;;;80.60;;
84974;SDS011;75284;50.310;19.284;2024-01-11T05:25:52;213.10;;;81.30;;
84974;SDS011;75284;50.310;19.284;2024-01-11T05:28:22;209.10;;;75.80;;
84974;SDS011;75284;50.310;19.284;2024-01-11T05:30:51;203.80;;;77.60;;
84974;SDS011;75284;50.310;19.284;2024-01-11T05:33:21;270.00;;;96.00;;
84974;SDS011;75284;50.310;19.284;2024-01-11T05:35:51;259.60;;;83.90;;
84974;SDS011;75284;50.310;19.284;2024-01-11T05:38:21;286.00;;;88.40;;
84974;SDS011;75284;50.310;19.284;2024-01-11T05:40:51;279.00;;;93.50;;
84974;SDS011;75284;50.310;19.284;2024-01-11T05:43:21;250.20;;;87.20;;
84974;SDS011;75284;50.310;19.284;2024-01-11T05:45:53;180.20;;;63.80;;
84974;SDS011;75284;50.310;19.284;2024-01-11T05:48:22;288.60;;;101.00;;
84974;SDS011;75284;50.310;19.284;2024-01-11T05:50:52;256.30;;;83.50;;
84974;SDS011;75284;50.310;19.284;2024-01-11T05:53:22;236.50;;;87.80;;
84974;SDS011;75284;50.310;19.284;2024-01-11T05:55:52;257.20;;;98.80;;
84974;SDS011;75284;50.310;19.284;2024-01-11T05:58:22;283.40;;;114.60;;
84974;SDS011;75284;50.310;19.284;2024-01-11T06:00:51;280.40;;;119.90;;
84974;SDS011;75284;50.310;19.284;2024-01-11T06:03:23;273.10;;;112.20;;
84974;SDS011;75284;50.310;19.284;2024-01-11T06:05:52;280.10;;;108.00;;
84974;SDS011;75284;50.310;19.284;2024-01-11T06:08:22;265.50;;;99.70;;
84974;SDS011;75284;50.310;19.284;2024-01-11T06:10:51;264.20;;;101.50;;
84974;SDS011;75284;50.310;19.284;2024-01-11T06:13:21;164.10;;;59.90;;
84974;SDS011;75284;50.310;19.284;2024-01-11T06:15:51;211.30;;;83.30;;
84974;SDS011;75284;50.310;19.284;2024-01-11T06:18:20;125.40;;;49.90;;
84974;SDS011;75284;50.310;19.284;2024-01-11T06:20:50;194.70;;;77.40;;
84974;SDS011;75284;50.310;19.284;2024-01-11T06:23:19;218.40;;;86.90;;
84974;SDS011;75284;50.310;19.284;2024-01-11T06:25:49;188.10;;;71.00;;
84974;SDS011;75284;50.310;19.284;2024-01-11T06:28:19;192.20;;;78.40;;
84974;SDS011;75284;50.310;19.284;2024-01-11T06:30:48;208.70;;;79.80;;
84974;SDS011;75284;50.310;19.284;2024-01-11T06:33:18;192.10;;;74.30;;
84974;SDS011;75284;50.310;19.284;2024-01-11T06:35:48;161.60;;;59.70;;
84974;SDS011;75284;50.310;19.284;2024-01-11T06:38:22;182.10;;;65.60;;
84974;SDS011;75284;50.310;19.284;2024-01-11T06:40:51;157.20;;;59.60;;
84974;SDS011;75284;50.310;19.284;2024-01-11T06:43:21;194.20;;;72.50;;
84974;SDS011;75284;50.310;19.284;2024-01-11T06:45:50;202.00;;;84.50;;
84974;SDS011;75284;50.310;19.284;2024-01-11T06:48:20;161.70;;;63.40;;
84974;SDS011;75284;50.310;19.284;2024-01-11T06:50:50;179.10;;;68.00;;
84974;SDS011;75284;50.310;19.284;2024-01-11T06:53:20;153.10;;;59.30;;
84974;SDS011;75284;50.310;19.284;2024-01-11T06:55:49;172.30;;;66.30;;
84974;SDS011;75284;50.310;19.284;2024-01-11T06:58:21;161.60;;;67.70;;
84974;SDS011;75284;50.310;19.284;2024-01-11T07:00:51;153.20;;;62.20;;
84974;SDS011;75284;50.310;19.284;2024-01-11T07:03:21;191.70;;;72.60;;
84974;SDS011;75284;50.310;19.284;2024-01-11T07:05:51;99.10;;;41.40;;
84974;SDS011;75284;50.310;19.284;2024-01-11T07:08:21;196.50;;;80.30;;
84974;SDS011;75284;50.310;19.284;2024-01-11T07:10:51;177.10;;;65.20;;
84974;SDS011;75284;50.310;19.284;2024-01-11T07:13:21;176.10;;;72.30;;
84974;SDS011;75284;50.310;19.284;2024-01-11T07:15:50;151.40;;;68.80;;
84974;SDS011;75284;50.310;19.284;2024-01-11T07:18:20;229.50;;;93.60;;
84974;SDS011;75284;50.310;19.284;2024-01-11T07:20:50;95.60;;;42.20;;
84974;SDS011;75284;50.310;19.284;2024-01-11T07:23:24;220.30;;;86.40;;
84974;SDS011;75284;50.310;19.284;2024-01-11T07:25:54;269.80;;;100.70;;
84974;SDS011;75284;50.310;19.284;2024-01-11T07:28:23;202.40;;;71.70;;
84974;SDS011;75284;50.310;19.284;2024-01-11T07:30:53;126.70;;;50.50;;
84974;SDS011;75284;50.310;19.284;2024-01-11T07:33:23;123.20;;;44.90;;
84974;SDS011;75284;50.310;19.284;2024-01-11T07:35:52;168.50;;;66.90;;
84974;SDS011;75284;50.310;19.284;2024-01-11T07:38:23;204.40;;;73.10;;
84974;SDS011;75284;50.310;19.284;2024-01-11T07:40:53;160.90;;;61.50;;
84974;SDS011;75284;50.310;19.284;2024-01-11T07:43:22;66.30;;;22.60;;
84974;SDS011;75284;50.310;19.284;2024-01-11T07:45:54;68.80;;;25.80;;
84974;SDS011;75284;50.310;19.284;2024-01-11T07:48:24;94.90;;;33.40;;
84974;SDS011;75284;50.310;19.284;2024-01-11T07:50:53;75.80;;;30.10;;
84974;SDS011;75284;50.310;19.284;2024-01-11T07:53:23;92.30;;;38.80;;
84974;SDS011;75284;50.310;19.284;2024-01-11T07:55:53;106.30;;;45.80;;
84974;SDS011;75284;50.310;19.284;2024-01-11T07:58:23;80.10;;;30.90;;
84974;SDS011;75284;50.310;19.284;2024-01-11T08:00:53;113.30;;;46.30;;
84974;SDS011;75284;50.310;19.284;2024-01-11T08:03:22;114.70;;;46.20;;
84974;SDS011;75284;50.310;19.284;2024-01-11T08:05:52;87.70;;;36.00;;
84974;SDS011;75284;50.310;19.284;2024-01-11T08:08:21;108.30;;;45.00;;
84974;SDS011;75284;50.310;19.284;2024-01-11T08:10:52;110.60;;;43.30;;
84974;SDS011;75284;50.310;19.284;2024-01-11T08:13:22;103.80;;;40.80;;
84974;SDS011;75284;50.310;19.284;2024-01-11T08:15:52;157.80;;;66.40;;
84974;SDS011;75284;50.310;19.284;2024-01-11T08:18:21;126.90;;;51.20;;
84974;SDS011;75284;50.310;19.284;2024-01-11T08:20:51;113.40;;;46.70;;
84974;SDS011;75284;50.310;19.284;2024-01-11T08:23:21;121.20;;;47.00;;
84974;SDS011;75284;50.310;19.284;2024-01-11T08:25:51;69.90;;;30.20;;
84974;SDS011;75284;50.310;19.284;2024-01-11T08:28:27;127.20;;;48.30;;
84974;SDS011;75284;50.310;19.284;2024-01-11T08:30:56;93.10;;;39.40;;
84974;SDS011;75284;50.310;19.284;2024-01-11T08:33:26;125.10;;;52.70;;
84974;SDS011;75284;50.310;19.284;2024-01-11T08:35:56;100.30;;;42.50;;
84974;SDS011;75284;50.310;19.284;2024-01-11T08:38:25;105.60;;;49.00;;
84974;SDS011;75284;50.310;19.284;2024-01-11T08:40:57;99.40;;;40.30;;
84974;SDS011;75284;50.310;19.284;2024-01-11T08:43:28;93.90;;;38.60;;
84974;SDS011;75284;50.310;19.284;2024-01-11T08:45:58;110.70;;;49.80;;
84974;SDS011;75284;50.310;19.284;2024-01-11T08:48:29;123.30;;;51.30;;
84974;SDS011;75284;50.310;19.284;2024-01-11T08:50:59;154.30;;;64.60;;
84974;SDS011;75284;50.310;19.284;2024-01-11T08:53:29;135.50;;;56.70;;
84974;SDS011;75284;50.310;19.284;2024-01-11T08:55:58;105.00;;;44.40;;
84974;SDS011;75284;50.310;19.284;2024-01-11T08:58:28;114.90;;;50.30;;
84974;SDS011;75284;50.310;19.284;2024-01-11T09:00:57;158.00;;;47.30;;
84974;SDS011;75284;50.310;19.284;2024-01-11T09:03:27;72.70;;;27.40;;
84974;SDS011;75284;50.310;19.284;2024-01-11T09:05:57;217.70;;;71.30;;
84974;SDS011;75284;50.310;19.284;2024-01-11T09:08:26;131.40;;;40.50;;
84974;SDS011;75284;50.310;19.284;2024-01-11T09:10:57;95.10;;;34.20;;
84974;SDS011;75284;50.310;19.284;2024-01-11T09:13:28;138.00;;;49.00;;
84974;SDS011;75284;50.310;19.284;2024-01-11T09:16:02;149.00;;;50.40;;
84974;SDS011;75284;50.310;19.284;2024-01-11T09:18:32;112.30;;;38.60;;
84974;SDS011;75284;50.310;19.284;2024-01-11T09:21:02;79.60;;;31.30;;
84974;SDS011;75284;50.310;19.284;2024-01-11T09:23:32;74.10;;;31.90;;
84974;SDS011;75284;50.310;19.284;2024-01-11T09:26:02;88.80;;;38.60;;
84974;SDS011;75284;50.310;19.284;2024-01-11T09:28:32;112.10;;;40.10;;
84974;SDS011;75284;50.310;19.284;2024-01-11T09:31:02;113.40;;;41.00;;
84974;SDS011;75284;50.310;19.284;2024-01-11T09:33:32;108.20;;;38.80;;
84974;SDS011;75284;50.310;19.284;2024-01-11T09:36:02;135.20;;;55.60;;
84974;SDS011;75284;50.310;19.284;2024-01-11T09:38:33;124.00;;;51.10;;
84974;SDS011;75284;50.310;19.284;2024-01-11T09:41:05;109.10;;;40.60;;
84974;SDS011;75284;50.310;19.284;2024-01-11T09:43:41;83.50;;;32.30;;
84974;SDS011;75284;50.310;19.284;2024-01-11T09:46:11;122.10;;;48.20;;
84974;SDS011;75284;50.310;19.284;2024-01-11T09:48:43;125.70;;;48.50;;
84974;SDS011;75284;50.310;19.284;2024-01-11T09:51:13;78.90;;;36.30;;
84974;SDS011;75284;50.310;19.284;2024-01-11T09:53:43;58.40;;;25.50;;
84974;SDS011;75284;50.310;19.284;2024-01-11T09:56:14;38.30;;;17.40;;
84974;SDS011;75284;50.310;19.284;2024-01-11T09:58:46;39.20;;;17.40;;
84974;SDS011;75284;50.310;19.284;2024-01-11T10:01:21;35.50;;;15.30;;
84974;SDS011;75284;50.310;19.284;2024-01-11T10:03:53;46.90;;;17.40;;
84974;SDS011;75284;50.310;19.284;2024-01-11T10:06:23;42.70;;;17.70;;
84974;SDS011;75284;50.310;19.284;2024-01-11T10:08:54;43.10;;;19.20;;
84974;SDS011;75284;50.310;19.284;2024-01-11T10:11:23;39.20;;;16.60;;
84974;SDS011;75284;50.310;19.284;2024-01-11T10:13:57;35.90;;;16.00;;
84974;SDS011;75284;50.310;19.284;2024-01-11T10:16:28;35.10;;;17.10;;
84974;SDS011;75284;50.310;19.284;2024-01-11T10:18:58;37.70;;;16.00;;
84974;SDS011;75284;50.310;19.284;2024-01-11T10:21:28;21.80;;;10.50;;
84974;SDS011;75284;50.310;19.284;2024-01-11T10:23:58;38.90;;;17.60;;
84974;SDS011;75284;50.310;19.284;2024-01-11T10:26:32;38.10;;;16.40;;
84974;SDS011;75284;50.310;19.284;2024-01-11T10:29:03;38.00;;;15.10;;
84974;SDS011;75284;50.310;19.284;2024-01-11T10:31:38;35.10;;;16.40;;
84974;SDS011;75284;50.310;19.284;2024-01-11T10:34:08;23.30;;;9.30;;
84974;SDS011;75284;50.310;19.284;2024-01-11T10:36:38;39.90;;;18.30;;
84974;SDS011;75284;50.310;19.284;2024-01-11T10:39:08;38.90;;;18.20;;
84974;SDS011;75284;50.310;19.284;2024-01-11T10:41:41;26.40;;;13.60;;
84974;SDS011;75284;50.310;19.284;2024-01-11T10:44:19;41.00;;;18.50;;
84974;SDS011;75284;50.310;19.284;2024-01-11T10:46:49;30.30;;;14.90;;
84974;SDS011;75284;50.310;19.284;2024-01-11T10:49:23;40.50;;;17.50;;
84974;SDS011;75284;50.310;19.284;2024-01-11T10:51:56;33.90;;;16.00;;
84974;SDS011;75284;50.310;19.284;2024-01-11T10:54:29;38.20;;;16.20;;
84974;SDS011;75284;50.310;19.284;2024-01-11T10:57:02;47.80;;;18.60;;
84974;SDS011;75284;50.310;19.284;2024-01-11T10:59:33;41.90;;;18.50;;
84974;SDS011;75284;50.310;19.284;2024-01-11T11:02:05;36.50;;;18.80;;
84974;SDS011;75284;50.310;19.284;2024-01-11T11:04:39;36.80;;;17.20;;
84974;SDS011;75284;50.310;19.284;2024-01-11T11:07:10;51.30;;;21.40;;
84974;SDS011;75284;50.310;19.284;2024-01-11T11:09:42;49.80;;;18.80;;
84974;SDS011;75284;50.310;19.284;2024-01-11T11:12:13;43.90;;;19.50;;
84974;SDS011;75284;50.310;19.284;2024-01-11T11:14:44;53.30;;;24.30;;
84974;SDS011;75284;50.310;19.284;2024-01-11T11:17:16;49.20;;;18.70;;
84974;SDS011;75284;50.310;19.284;2024-01-11T11:19:46;37.30;;;15.10;;
84974;SDS011;75284;50.310;19.284;2024-01-11T11:22:16;41.20;;;18.20;;
84974;SDS011;75284;50.310;19.284;2024-01-11T11:24:47;39.90;;;17.90;;
84974;SDS011;75284;50.310;19.284;2024-01-11T11:27:30;34.30;;;13.80;;
84974;SDS011;75284;50.310;19.284;2024-01-11T11:30:00;59.20;;;24.60;;
84974;SDS011;75284;50.310;19.284;2024-01-11T11:32:37;55.60;;;21.10;;
84974;SDS011;75284;50.310;19.284;2024-01-11T11:35:11;57.20;;;22.70;;
84974;SDS011;75284;50.310;19.284;2024-01-11T11:37:40;42.70;;;17.80;;
84974;SDS011;75284;50.310;19.284;2024-01-11T11:40:10;40.80;;;18.60;;
84974;SDS011;75284;50.310;19.284;2024-01-11T11:42:41;46.20;;;20.40;;
84974;SDS011;75284;50.310;19.284;2024-01-11T11:45:11;35.50;;;14.20;;
84974;SDS011;75284;50.310;19.284;2024-01-11T11:47:56;28.90;;;12.40;;
84974;SDS011;75284;50.310;19.284;2024-01-11T11:50:26;37.20;;;17.60;;
84974;SDS011;75284;50.310;19.284;2024-01-11T11:52:57;39.90;;;18.50;;
84974;SDS011;75284;50.310;19.284;2024-01-11T11:55:27;46.40;;;21.00;;
84974;SDS011;75284;50.310;19.284;2024-01-11T11:57:58;39.50;;;17.90;;
84974;SDS011;75284;50.310;19.284;2024-01-11T12:00:31;33.20;;;14.50;;
84974;SDS011;75284;50.310;19.284;2024-01-11T12:03:02;37.60;;;13.00;;
84974;SDS011;75284;50.310;19.284;2024-01-11T12:05:34;46.50;;;20.40;;
84974;SDS011;75284;50.310;19.284;2024-01-11T12:08:07;36.80;;;17.30;;
84974;SDS011;75284;50.310;19.284;2024-01-11T12:10:36;47.30;;;20.80;;
84974;SDS011;75284;50.310;19.284;2024-01-11T12:13:07;46.00;;;19.40;;
84974;SDS011;75284;50.310;19.284;2024-01-11T12:15:37;23.10;;;11.00;;
84974;SDS011;75284;50.310;19.284;2024-01-11T12:18:07;32.50;;;14.60;;
84974;SDS011;75284;50.310;19.284;2024-01-11T12:20:37;38.00;;;15.30;;
84974;SDS011;75284;50.310;19.284;2024-01-11T12:23:07;46.60;;;21.00;;
84974;SDS011;75284;50.310;19.284;2024-01-11T12:25:37;48.70;;;19.70;;
84974;SDS011;75284;50.310;19.284;2024-01-11T12:28:07;47.80;;;20.60;;
84974;SDS011;75284;50.310;19.284;2024-01-11T12:30:38;36.40;;;18.10;;
84974;SDS011;75284;50.310;19.284;2024-01-11T12:33:07;32.30;;;15.00;;
84974;SDS011;75284;50.310;19.284;2024-01-11T12:35:38;39.60;;;18.40;;
84974;SDS011;75284;50.310;19.284;2024-01-11T12:38:12;45.10;;;21.40;;
84974;SDS011;75284;50.310;19.284;2024-01-11T12:40:43;43.60;;;18.60;;
84974;SDS011;75284;50.310;19.284;2024-01-11T12:43:16;38.30;;;20.20;;
84974;SDS011;75284;50.310;19.284;2024-01-11T12:45:45;43.70;;;19.30;;
84974;SDS011;75284;50.310;19.284;2024-01-11T12:48:15;36.10;;;15.80;;
84974;SDS011;75284;50.310;19.284;2024-01-11T12:50:48;38.50;;;17.70;;
84974;SDS011;75284;50.310;19.284;2024-01-11T12:53:22;36.40;;;15.00;;
84974;SDS011;75284;50.310;19.284;2024-01-11T12:56:03;40.10;;;17.20;;
84974;SDS011;75284;50.310;19.284;2024-01-11T12:58:38;46.70;;;20.10;;
84974;SDS011;75284;50.310;19.284;2024-01-11T13:01:08;47.50;;;19.50;;
84974;SDS011;75284;50.310;19.284;2024-01-11T13:03:39;45.90;;;21.00;;
84974;SDS011;75284;50.310;19.284;2024-01-11T13:06:16;31.30;;;13.90;;
84974;SDS011;75284;50.310;19.284;2024-01-11T13:08:47;35.80;;;16.60;;
84974;SDS011;75284;50.310;19.284;2024-01-11T13:11:16;47.70;;;19.50;;
84974;SDS011;75284;50.310;19.284;2024-01-11T13:13:49;37.20;;;17.20;;
84974;SDS011;75284;50.310;19.284;2024-01-11T13:16:19;38.50;;;17.70;;
84974;SDS011;75284;50.310;19.284;2024-01-11T13:18:49;48.20;;;16.60;;
84974;SDS011;75284;50.310;19.284;2024-01-11T13:21:19;33.40;;;14.40;;
84974;SDS011;75284;50.310;19.284;2024-01-11T13:23:49;41.70;;;18.80;;
84974;SDS011;75284;50.310;19.284;2024-01-11T13:26:22;40.10;;;18.70;;
84974;SDS011;75284;50.310;19.284;2024-01-11T13:28:52;50.20;;;20.70;;
84974;SDS011;75284;50.310;19.284;2024-01-11T13:31:22;38.90;;;18.40;;
84974;SDS011;75284;50.310;19.284;2024-01-11T13:33:51;50.60;;;22.10;;
84974;SDS011;75284;50.310;19.284;2024-01-11T13:36:22;41.70;;;18.10;;
84974;SDS011;75284;50.310;19.284;2024-01-11T13:38:52;37.20;;;15.30;;
84974;SDS011;75284;50.310;19.284;2024-01-11T13:41:22;46.60;;;21.20;;
84974;SDS011;75284;50.310;19.284;2024-01-11T13:43:51;43.00;;;16.90;;
84974;SDS011;75284;50.310;19.284;2024-01-11T13:46:22;38.40;;;20.20;;
84974;SDS011;75284;50.310;19.284;2024-01-11T13:48:52;39.30;;;16.60;;
84974;SDS011;75284;50.310;19.284;2024-01-11T13:51:21;40.10;;;19.20;;
84974;SDS011;75284;50.310;19.284;2024-01-11T13:53:51;47.50;;;22.90;;
84974;SDS011;75284;50.310;19.284;2024-01-11T13:59:14;50.70;;;20.60;;
84974;SDS011;75284;50.310;19.284;2024-01-11T14:01:46;43.40;;;19.00;;
84974;SDS011;75284;50.310;19.284;2024-01-11T14:04:15;43.10;;;17.50;;
84974;SDS011;75284;50.310;19.284;2024-01-11T14:06:45;46.80;;;18.00;;
84974;SDS011;75284;50.310;19.284;2024-01-11T14:09:14;38.70;;;17.30;;
84974;SDS011;75284;50.310;19.284;2024-01-11T14:11:46;38.10;;;17.40;;
84974;SDS011;75284;50.310;19.284;2024-01-11T14:14:16;45.50;;;18.70;;
84974;SDS011;75284;50.310;19.284;2024-01-11T14:16:48;18.90;;;9.30;;
84974;SDS011;75284;50.310;19.284;2024-01-11T14:19:19;26.40;;;11.40;;
84974;SDS011;75284;50.310;19.284;2024-01-11T14:21:49;35.10;;;15.30;;
84974;SDS011;75284;50.310;19.284;2024-01-11T14:24:18;51.20;;;19.40;;
84974;SDS011;75284;50.310;19.284;2024-01-11T14:26:48;47.30;;;19.80;;
84974;SDS011;75284;50.310;19.284;2024-01-11T14:29:17;38.60;;;17.80;;